createdAt,value
2023-01-17T00:02:05.881Z,98251.78
2023-01-17T00:04:51.390Z,98247.72
2023-01-17T00:07:38.248Z,98240.44
2023-01-17T00:10:08.706Z,98229.34
2023-01-17T00:12:38.139Z,98228.81
2023-01-17T00:15:07.845Z,98227.25
2023-01-17T00:17:35.581Z,98221.50
2023-01-17T00:20:20.651Z,98228.84
2023-01-17T00:23:06.026Z,98223.50
2023-01-17T00:25:56.022Z,98212.00
2023-01-17T00:28:24.743Z,98205.56
2023-01-17T00:30:51.474Z,98204.16
2023-01-17T00:33:18.646Z,98187.41
2023-01-17T00:35:45.624Z,98192.94
2023-01-17T00:38:13.822Z,98185.31
2023-01-17T00:40:42.530Z,98179.34
2023-01-17T00:43:29.453Z,98175.50
2023-01-17T00:46:16.315Z,98160.59
2023-01-17T00:49:01.855Z,98162.09
2023-01-17T00:51:49.254Z,98144.16
2023-01-17T00:54:35.239Z,98155.97
2023-01-17T00:57:21.154Z,98133.69
2023-01-17T01:00:06.664Z,98131.63
2023-01-17T01:02:53.871Z,98126.84
2023-01-17T01:05:39.044Z,98123.19
2023-01-17T01:08:34.906Z,98115.13
2023-01-17T01:11:23.982Z,98109.31
2023-01-17T01:14:09.418Z,98106.78
2023-01-17T01:16:54.774Z,98098.22
2023-01-17T01:19:41.362Z,98097.16
2023-01-17T01:22:26.923Z,98095.03
2023-01-17T01:25:12.118Z,98089.72
2023-01-17T01:27:57.646Z,98085.72
2023-01-17T01:30:43.094Z,98078.75
2023-01-17T01:33:19.166Z,98080.66
2023-01-17T01:35:49.661Z,98076.59
2023-01-17T01:38:17.870Z,98078.00
2023-01-17T01:40:47.766Z,98067.75
2023-01-17T01:43:18.016Z,98071.44
2023-01-17T01:45:51.457Z,98064.09
2023-01-17T01:48:36.667Z,98065.81
2023-01-17T01:51:10.301Z,98073.38
2023-01-17T01:53:41.796Z,98068.50
2023-01-17T01:56:13.658Z,98068.81
2023-01-17T01:58:42.892Z,98062.88
2023-01-17T02:01:11.363Z,98061.91
2023-01-17T02:03:42.028Z,98052.00
2023-01-17T02:06:29.956Z,98047.97
2023-01-17T02:09:02.806Z,98050.56
2023-01-17T02:11:31.314Z,98039.97
2023-01-17T02:13:59.336Z,98041.84
2023-01-17T02:16:45.074Z,98045.25
2023-01-17T02:19:41.708Z,98039.44
2023-01-17T02:22:35.211Z,98042.25
2023-01-17T02:25:20.830Z,98037.03
2023-01-17T02:28:06.028Z,98041.31
2023-01-17T02:30:38.347Z,98042.69
2023-01-17T02:33:21.832Z,98034.97
2023-01-17T02:35:57.875Z,98031.47
2023-01-17T02:38:35.040Z,98029.19
2023-01-17T02:41:07.848Z,98031.41
2023-01-17T02:43:38.343Z,98028.91
2023-01-17T02:46:09.641Z,98023.63
2023-01-17T02:48:38.257Z,98018.06
2023-01-17T02:51:39.275Z,98017.66
2023-01-17T02:54:36.762Z,98015.28
2023-01-17T02:57:19.361Z,98013.25
2023-01-17T02:59:55.745Z,98013.78
2023-01-17T03:02:33.374Z,98012.53
2023-01-17T03:05:07.677Z,98010.97
2023-01-17T03:07:37.813Z,98003.84
2023-01-17T03:10:07.500Z,97996.88
2023-01-17T03:12:38.672Z,97997.09
2023-01-17T03:15:11.173Z,97995.81
2023-01-17T03:17:42.395Z,97994.25
2023-01-17T03:20:12.387Z,97993.25
2023-01-17T03:22:40.128Z,97990.13
2023-01-17T03:25:09.496Z,97985.94
2023-01-17T03:27:37.337Z,97987.63
2023-01-17T03:30:05.883Z,97989.31
2023-01-17T03:32:33.686Z,97973.66
2023-01-17T03:35:02.942Z,97971.19
2023-01-17T03:37:30.736Z,97963.97
2023-01-17T03:39:58.566Z,97962.34
2023-01-17T03:42:26.411Z,97954.41
2023-01-17T03:44:54.125Z,97958.66
2023-01-17T03:47:21.925Z,97950.38
2023-01-17T03:49:49.701Z,97957.38
2023-01-17T03:52:18.979Z,97952.19
2023-01-17T03:54:46.676Z,97950.78
2023-01-17T03:57:14.422Z,97945.34
2023-01-17T03:59:42.142Z,97952.44
2023-01-17T04:02:09.948Z,97953.06
2023-01-17T04:04:37.826Z,97949.44
2023-01-17T04:07:05.808Z,97948.84
2023-01-17T04:09:35.443Z,97939.56
2023-01-17T04:12:03.678Z,97939.31
2023-01-17T04:14:31.511Z,97945.22
2023-01-17T04:16:59.926Z,97944.50
2023-01-17T04:19:27.764Z,97946.31
2023-01-17T04:21:55.596Z,97941.84
2023-01-17T04:24:23.345Z,97948.50
2023-01-17T04:26:52.459Z,97940.94
2023-01-17T04:29:20.273Z,97941.50
2023-01-17T04:31:48.751Z,97943.09
2023-01-17T04:34:16.654Z,97939.38
2023-01-17T04:36:44.524Z,97941.44
2023-01-17T04:39:12.254Z,97949.00
2023-01-17T04:41:40.120Z,97945.78
2023-01-17T04:44:09.255Z,97940.75
2023-01-17T04:46:37.110Z,97940.25
2023-01-17T04:49:04.839Z,97942.13
2023-01-17T04:51:32.590Z,97936.06
2023-01-17T04:54:00.374Z,97936.50
2023-01-17T04:56:28.180Z,97942.69
2023-01-17T04:58:57.826Z,97935.75
2023-01-17T05:01:27.125Z,97935.41
2023-01-17T05:03:55.043Z,97937.06
2023-01-17T05:06:22.808Z,97939.41
2023-01-17T05:08:50.497Z,97930.75
2023-01-17T05:11:18.233Z,97932.09
2023-01-17T05:13:45.946Z,97932.31
2023-01-17T05:16:13.738Z,97930.53
2023-01-17T05:18:42.886Z,97930.31
2023-01-17T05:21:10.638Z,97924.63
2023-01-17T05:23:38.538Z,97921.25
2023-01-17T05:26:06.605Z,97909.53
2023-01-17T05:28:34.392Z,97911.56
2023-01-17T05:31:02.240Z,97911.22
2023-01-17T05:33:30.136Z,97922.16
2023-01-17T05:35:59.340Z,97918.78
2023-01-17T05:38:27.111Z,97919.03
2023-01-17T05:40:54.870Z,97920.34
2023-01-17T05:43:22.808Z,97917.91
2023-01-17T05:45:50.715Z,97919.31
2023-01-17T05:48:18.512Z,97916.56
2023-01-17T05:50:46.234Z,97920.56
2023-01-17T05:53:17.270Z,97918.88
2023-01-17T05:55:45.131Z,97910.94
2023-01-17T05:58:16.347Z,97906.97
2023-01-17T06:00:44.442Z,97921.47
2023-01-17T06:03:12.895Z,97920.00
2023-01-17T06:05:40.873Z,97917.31
2023-01-17T06:08:08.916Z,97914.25
2023-01-17T06:10:38.094Z,97914.03
2023-01-17T06:13:07.733Z,97919.69
2023-01-17T06:15:36.735Z,97921.63
2023-01-17T06:18:08.746Z,97925.00
2023-01-17T06:20:36.921Z,97926.38
2023-01-17T06:23:05.895Z,97927.56
2023-01-17T06:25:39.519Z,97928.72
2023-01-17T06:28:07.854Z,97924.22
2023-01-17T06:30:35.754Z,97920.81
2023-01-17T06:33:04.016Z,97919.34
2023-01-17T06:35:32.266Z,97924.94
2023-01-17T06:38:00.670Z,97923.44
2023-01-17T06:40:29.749Z,97918.22
2023-01-17T06:43:02.499Z,97922.25
2023-01-17T06:45:30.729Z,97932.53
2023-01-17T06:47:59.245Z,97932.72
2023-01-17T06:50:27.279Z,97930.91
2023-01-17T06:52:59.583Z,97924.66
2023-01-17T06:55:28.855Z,97920.13
2023-01-17T06:57:57.040Z,97922.56
2023-01-17T07:00:26.823Z,97922.47
2023-01-17T07:02:54.853Z,97919.50
2023-01-17T07:05:22.866Z,97920.66
2023-01-17T07:07:50.579Z,97929.44
2023-01-17T07:10:18.495Z,97922.03
2023-01-17T07:12:46.593Z,97919.72
2023-01-17T07:15:14.379Z,97914.88
2023-01-17T07:17:43.507Z,97916.75
2023-01-17T07:20:12.033Z,97926.53
2023-01-17T07:22:39.759Z,97921.22
2023-01-17T07:25:08.513Z,97927.69
2023-01-17T07:27:36.358Z,97942.78
2023-01-17T07:30:04.444Z,97945.97
2023-01-17T07:32:32.246Z,97946.91
2023-01-17T07:35:01.311Z,97954.19
2023-01-17T07:37:29.074Z,97967.25
2023-01-17T07:39:56.951Z,97958.41
2023-01-17T07:42:24.907Z,97959.38
2023-01-17T07:44:52.662Z,97975.63
2023-01-17T07:47:20.927Z,97979.56
2023-01-17T07:49:48.706Z,97971.13
2023-01-17T07:52:18.336Z,97967.31
2023-01-17T07:54:46.320Z,97973.88
2023-01-17T07:57:14.077Z,97959.28
2023-01-17T07:59:41.817Z,97953.44
2023-01-17T08:02:17.580Z,97945.31
2023-01-17T08:04:45.803Z,97932.19
2023-01-17T08:07:14.402Z,97925.00
2023-01-17T08:09:44.396Z,97933.03
2023-01-17T08:12:12.148Z,97928.00
2023-01-17T08:14:39.851Z,97921.41
2023-01-17T08:17:08.111Z,97924.13
2023-01-17T08:19:35.873Z,97915.91
2023-01-17T08:22:03.645Z,97920.06
2023-01-17T08:24:31.350Z,97926.94
2023-01-17T08:27:00.484Z,97943.31
2023-01-17T08:29:29.295Z,97942.47
2023-01-17T08:31:57.189Z,97961.97
2023-01-17T08:34:25.732Z,97950.47
2023-01-17T08:36:53.975Z,97955.91
2023-01-17T08:39:21.744Z,97959.72
2023-01-17T08:41:49.499Z,97964.22
2023-01-17T08:44:19.958Z,97976.38
2023-01-17T08:46:47.789Z,97979.31
2023-01-17T08:49:15.530Z,97981.31
2023-01-17T08:51:43.340Z,97982.03
2023-01-17T08:54:13.246Z,97979.34
2023-01-17T08:56:42.774Z,97980.47
2023-01-17T08:59:11.688Z,97983.97
2023-01-17T09:01:41.842Z,97980.28
2023-01-17T09:04:10.107Z,97977.31
2023-01-17T09:06:38.465Z,97980.09
2023-01-17T09:09:07.453Z,97975.38
2023-01-17T09:11:35.874Z,97974.72
2023-01-17T09:14:03.708Z,97976.09
2023-01-17T09:16:31.987Z,97974.84
2023-01-17T09:19:01.500Z,97974.47
2023-01-17T09:21:29.357Z,97975.16
2023-01-17T09:23:57.161Z,97972.09
2023-01-17T09:26:27.095Z,97980.75
2023-01-17T09:28:55.620Z,97979.69
2023-01-17T09:31:24.620Z,97977.81
2023-01-17T09:33:53.193Z,97978.56
2023-01-17T09:36:23.899Z,97979.09
2023-01-17T09:38:56.417Z,97978.72
2023-01-17T09:41:27.919Z,97984.75
2023-01-17T09:44:01.441Z,97987.13
2023-01-17T09:46:30.674Z,97979.59
2023-01-17T09:49:04.603Z,97990.00
2023-01-17T09:51:33.939Z,97986.88
2023-01-17T09:54:02.464Z,97988.81
2023-01-17T09:56:32.929Z,97998.47
2023-01-17T09:59:32.162Z,97993.31
2023-01-17T10:02:16.208Z,97984.88
2023-01-17T10:04:58.542Z,97982.59
2023-01-17T10:07:39.279Z,97990.25
2023-01-17T10:10:19.386Z,97996.28
2023-01-17T10:12:56.526Z,98009.81
2023-01-17T10:15:37.733Z,98005.25
2023-01-17T10:18:29.839Z,98008.13
2023-01-17T10:21:04.419Z,98005.00
2023-01-17T10:24:04.678Z,98003.56
2023-01-17T10:26:35.085Z,98006.94
2023-01-17T10:29:10.538Z,98008.50
2023-01-17T10:31:44.668Z,98009.56
2023-01-17T10:34:16.731Z,98024.22
2023-01-17T10:36:49.671Z,98023.50
2023-01-17T10:39:22.433Z,98021.53
2023-01-17T10:41:56.277Z,98009.47
2023-01-17T10:44:31.393Z,98011.75
2023-01-17T10:47:08.104Z,98007.97
2023-01-17T10:49:38.750Z,98000.59
2023-01-17T10:52:16.640Z,97997.00
2023-01-17T10:54:54.698Z,98002.94
2023-01-17T10:57:24.841Z,98004.63
2023-01-17T10:59:53.837Z,98007.59
2023-01-17T11:02:25.787Z,98012.25
2023-01-17T11:04:55.883Z,98011.47
2023-01-17T11:07:26.035Z,98008.34
2023-01-17T11:09:57.037Z,97997.59
2023-01-17T11:12:30.004Z,98006.16
2023-01-17T11:15:22.766Z,97998.81
2023-01-17T11:17:53.301Z,97990.25
2023-01-17T11:20:28.983Z,97985.22
2023-01-17T11:23:07.989Z,97986.28
2023-01-17T11:25:37.354Z,97983.88
2023-01-17T11:28:08.278Z,97976.53
2023-01-17T11:30:36.036Z,97984.59
2023-01-17T11:33:08.855Z,97972.41
2023-01-17T11:35:38.701Z,97970.47
2023-01-17T11:38:13.162Z,97956.75
2023-01-17T11:40:44.098Z,97963.00
2023-01-17T11:43:25.604Z,97963.53
2023-01-17T11:46:05.402Z,97967.22
2023-01-17T11:48:38.650Z,97960.88
2023-01-17T11:51:19.319Z,97952.88
2023-01-17T11:53:48.322Z,97950.00
2023-01-17T11:56:25.546Z,97952.59
2023-01-17T11:58:54.189Z,97949.09
2023-01-17T12:01:38.337Z,97940.94
2023-01-17T12:04:25.162Z,97938.22
2023-01-17T12:07:09.426Z,97930.00
2023-01-17T12:09:43.245Z,97917.63
2023-01-17T12:12:38.587Z,97910.34
2023-01-17T12:15:19.251Z,97912.03
2023-01-17T12:18:09.824Z,97902.84
2023-01-17T12:20:49.168Z,97903.31
2023-01-17T12:23:35.458Z,97901.09
2023-01-17T12:26:19.581Z,97894.16
2023-01-17T12:29:16.046Z,97885.69
2023-01-17T12:31:51.009Z,97894.59
2023-01-17T12:34:26.085Z,97887.59
2023-01-17T12:36:58.154Z,97883.44
2023-01-17T12:39:40.460Z,97879.88
2023-01-17T12:42:14.503Z,97876.38
2023-01-17T12:44:52.558Z,97881.97
2023-01-17T12:47:22.150Z,97877.22
2023-01-17T12:50:03.251Z,97862.63
2023-01-17T12:52:46.288Z,97862.16
2023-01-17T12:55:20.224Z,97863.06
2023-01-17T12:57:57.036Z,97865.75
2023-01-17T13:00:29.797Z,97860.25
2023-01-17T13:03:06.855Z,97869.81
2023-01-17T13:05:41.713Z,97862.53
2023-01-17T13:08:20.818Z,97863.44
2023-01-17T13:10:55.654Z,97854.06
2023-01-17T13:13:25.712Z,97849.34
2023-01-17T13:15:58.884Z,97852.34
2023-01-17T13:18:29.858Z,97854.66
2023-01-17T13:21:08.642Z,97846.47
2023-01-17T13:23:59.618Z,97853.44
2023-01-17T13:26:39.278Z,97853.00
2023-01-17T13:29:17.944Z,97853.69
2023-01-17T13:31:50.584Z,97848.00
2023-01-17T13:34:32.604Z,97849.75
2023-01-17T13:37:28.852Z,97854.81
2023-01-17T13:40:14.820Z,97853.56
2023-01-17T13:42:55.019Z,97850.41
2023-01-17T13:45:25.734Z,97847.50
2023-01-17T13:48:10.655Z,97845.22
2023-01-17T13:50:50.503Z,97850.25
2023-01-17T13:53:48.750Z,97852.47
2023-01-17T13:56:26.106Z,97858.56
2023-01-17T13:59:27.884Z,97859.25
2023-01-17T14:01:56.742Z,97858.84
2023-01-17T14:04:48.132Z,97861.16
2023-01-17T14:07:26.519Z,97863.97
2023-01-17T14:09:55.006Z,97867.53
2023-01-17T14:12:33.610Z,97858.19
2023-01-17T14:15:02.801Z,97861.97
2023-01-17T14:17:59.241Z,97863.84
2023-01-17T14:20:55.368Z,97863.75
2023-01-17T14:23:41.549Z,97873.03
2023-01-17T14:26:23.407Z,97870.97
2023-01-17T14:28:52.830Z,97870.31
2023-01-17T14:31:24.186Z,97861.34
2023-01-17T14:33:52.224Z,97865.13
2023-01-17T14:36:34.573Z,97865.78
2023-01-17T14:39:02.347Z,97869.56
2023-01-17T14:41:30.845Z,97871.59
2023-01-17T14:44:01.002Z,97873.88
2023-01-17T14:46:31.030Z,97875.78
2023-01-17T14:49:04.030Z,97886.25
2023-01-17T14:51:35.099Z,97886.28
2023-01-17T14:54:05.472Z,97891.72
2023-01-17T14:56:34.205Z,97899.88
2023-01-17T14:59:06.677Z,97906.78
2023-01-17T15:01:36.248Z,97911.00
2023-01-17T15:04:04.527Z,97916.41
2023-01-17T15:06:39.235Z,97929.75
2023-01-17T15:09:11.417Z,97932.50
2023-01-17T15:11:40.342Z,97930.59
2023-01-17T15:14:08.893Z,97937.97
2023-01-17T15:16:38.889Z,97943.78
2023-01-17T15:19:12.332Z,97947.00
2023-01-17T15:21:43.677Z,97957.81
2023-01-17T15:24:19.998Z,97956.75
2023-01-17T15:26:48.676Z,97961.56
2023-01-17T15:29:24.844Z,97970.94
2023-01-17T15:31:55.035Z,97968.28
2023-01-17T15:34:30.749Z,97974.22
2023-01-17T15:37:03.436Z,97983.03
2023-01-17T15:39:33.114Z,97979.03
2023-01-17T15:42:03.880Z,97988.75
2023-01-17T15:44:47.550Z,97987.31
2023-01-17T15:47:29.371Z,97998.34
2023-01-17T15:49:57.395Z,98005.94
2023-01-17T15:52:26.932Z,98010.50
2023-01-17T15:54:58.884Z,98014.44
2023-01-17T15:57:29.492Z,98010.44
2023-01-17T16:00:01.189Z,98011.97
2023-01-17T16:02:42.902Z,98020.78
2023-01-17T16:05:34.373Z,98029.06
2023-01-17T16:08:40.535Z,98034.25
2023-01-17T16:11:12.481Z,98038.16
2023-01-17T16:13:42.278Z,98042.63
2023-01-17T16:16:18.886Z,98048.56
2023-01-17T16:18:48.090Z,98053.53
2023-01-17T16:21:22.071Z,98046.09
2023-01-17T16:23:51.595Z,98053.59
2023-01-17T16:26:20.016Z,98061.41
2023-01-17T16:28:48.037Z,98062.72
2023-01-17T16:31:16.279Z,98074.59
2023-01-17T16:33:45.799Z,98065.72
2023-01-17T16:36:16.381Z,98081.00
2023-01-17T16:38:44.498Z,98078.78
2023-01-17T16:41:13.999Z,98085.22
2023-01-17T16:43:41.906Z,98089.03
2023-01-17T16:46:11.886Z,98091.28
2023-01-17T16:48:39.714Z,98105.78
2023-01-17T16:51:08.610Z,98102.41
2023-01-17T16:53:36.780Z,98109.56
2023-01-17T16:56:11.865Z,98118.16
2023-01-17T16:58:41.865Z,98120.16
2023-01-17T17:01:11.252Z,98126.81
2023-01-17T17:03:39.171Z,98137.72
2023-01-17T17:06:07.522Z,98137.91
2023-01-17T17:08:36.222Z,98146.53
2023-01-17T17:11:13.848Z,98148.50
2023-01-17T17:13:44.459Z,98155.72
2023-01-17T17:16:17.989Z,98161.06
2023-01-17T17:18:47.095Z,98167.88
2023-01-17T17:21:15.076Z,98169.38
2023-01-17T17:23:42.800Z,98174.47
2023-01-17T17:26:10.788Z,98183.44
2023-01-17T17:28:38.468Z,98189.16
2023-01-17T17:31:10.384Z,98197.88
2023-01-17T17:33:38.692Z,98209.69
2023-01-17T17:36:09.966Z,98210.75
2023-01-17T17:38:38.059Z,98219.31
2023-01-17T17:41:07.655Z,98226.75
2023-01-17T17:43:41.284Z,98230.34
2023-01-17T17:46:10.506Z,98228.13
2023-01-17T17:48:38.238Z,98247.16
2023-01-17T17:51:06.309Z,98241.56
2023-01-17T17:53:34.139Z,98254.59
2023-01-17T17:56:08.083Z,98255.66
2023-01-17T17:58:36.716Z,98264.66
2023-01-17T18:01:06.398Z,98264.31
2023-01-17T18:03:35.581Z,98271.91
2023-01-17T18:06:05.107Z,98284.72
2023-01-17T18:08:33.740Z,98294.38
2023-01-17T18:11:02.488Z,98298.59
2023-01-17T18:13:31.553Z,98306.88
2023-01-17T18:16:05.501Z,98319.72
2023-01-17T18:18:33.301Z,98325.09
2023-01-17T18:21:15.088Z,98325.94
2023-01-17T18:23:44.310Z,98330.50
2023-01-17T18:26:19.973Z,98339.50
2023-01-17T18:28:48.111Z,98352.88
2023-01-17T18:31:16.265Z,98355.72
2023-01-17T18:33:44.434Z,98364.50
2023-01-17T18:36:14.542Z,98381.53
2023-01-17T18:38:44.012Z,98398.16
2023-01-17T18:41:13.589Z,98404.19
2023-01-17T18:43:41.733Z,98414.22
2023-01-17T18:46:11.602Z,98428.13
2023-01-17T18:48:39.940Z,98436.81
2023-01-17T18:51:09.091Z,98454.38
2023-01-17T18:53:39.688Z,98465.25
2023-01-17T18:56:09.446Z,98474.97
2023-01-17T18:58:39.117Z,98494.16
2023-01-17T19:01:09.173Z,98497.16
2023-01-17T19:03:37.381Z,98512.25
2023-01-17T19:06:07.124Z,98525.59
2023-01-17T19:08:35.999Z,98526.78
2023-01-17T19:11:05.586Z,98542.53
2023-01-17T19:13:34.832Z,98548.50
2023-01-17T19:16:03.621Z,98563.94
2023-01-17T19:18:31.907Z,98572.53
2023-01-17T19:21:05.679Z,98568.34
2023-01-17T19:23:34.985Z,98571.03
2023-01-17T19:26:03.200Z,98590.13
2023-01-17T19:28:35.443Z,98594.50
2023-01-17T19:31:05.604Z,98601.56
2023-01-17T19:33:35.099Z,98608.72
2023-01-17T19:36:05.788Z,98620.59
2023-01-17T19:38:35.203Z,98624.44
2023-01-17T19:41:09.239Z,98626.72
2023-01-17T19:43:39.038Z,98638.41
2023-01-17T19:46:08.943Z,98652.53
2023-01-17T19:48:37.385Z,98643.53
2023-01-17T19:51:06.942Z,98657.41
2023-01-17T19:53:35.884Z,98660.75
2023-01-17T19:56:06.858Z,98640.34
2023-01-17T19:58:35.426Z,98621.94
2023-01-17T20:01:10.634Z,98611.53
2023-01-17T20:03:39.326Z,98644.78
2023-01-17T20:06:08.057Z,98648.66
2023-01-17T20:08:36.252Z,98662.44
2023-01-17T20:11:05.661Z,98671.19
2023-01-17T20:13:33.792Z,98684.31
2023-01-17T20:16:05.728Z,98692.75
2023-01-17T20:18:36.022Z,98705.84
2023-01-17T20:21:04.652Z,98698.56
2023-01-17T20:23:35.386Z,98703.41
2023-01-17T20:26:04.641Z,98706.75
2023-01-17T20:28:34.614Z,98714.72
2023-01-17T20:31:06.436Z,98712.66
2023-01-17T20:33:36.234Z,98729.09
2023-01-17T20:36:10.449Z,98730.03
2023-01-17T20:38:45.207Z,98745.19
2023-01-17T20:41:15.273Z,98754.28
2023-01-17T20:43:43.318Z,98748.34
2023-01-17T20:46:12.049Z,98755.00
2023-01-17T20:48:47.056Z,98756.31
2023-01-17T20:51:15.582Z,98766.00
2023-01-17T20:53:44.588Z,98774.28
2023-01-17T20:56:14.626Z,98772.72
2023-01-17T20:58:43.097Z,98776.66
2023-01-17T21:01:12.760Z,98780.50
2023-01-17T21:03:41.058Z,98781.75
2023-01-17T21:06:13.664Z,98788.78
2023-01-17T21:08:42.791Z,98789.25
2023-01-17T21:11:12.444Z,98793.16
2023-01-17T21:13:40.897Z,98807.69
2023-01-17T21:16:09.799Z,98816.03
2023-01-17T21:18:37.894Z,98820.81
2023-01-17T21:21:07.929Z,98815.19
2023-01-17T21:23:37.539Z,98829.00
2023-01-17T21:26:05.511Z,98835.47
2023-01-17T21:28:36.873Z,98838.28
2023-01-17T21:31:20.490Z,98846.91
2023-01-17T21:33:48.852Z,98845.72
2023-01-17T21:36:16.882Z,98844.88
2023-01-17T21:38:52.088Z,98851.69
2023-01-17T21:41:20.805Z,98853.22
2023-01-17T21:43:49.048Z,98855.84
2023-01-17T21:46:16.866Z,98860.53
2023-01-17T21:48:45.419Z,98860.97
2023-01-17T21:51:13.165Z,98875.03
2023-01-17T21:53:41.079Z,98872.56
2023-01-17T21:56:32.113Z,98880.75
2023-01-17T21:59:00.661Z,98888.66
2023-01-17T22:01:31.120Z,98899.50
2023-01-17T22:04:01.143Z,98905.28
2023-01-17T22:06:30.708Z,98917.22
2023-01-17T22:08:59.136Z,98919.69
2023-01-17T22:11:30.360Z,98928.78
2023-01-17T22:13:59.305Z,98927.53
2023-01-17T22:16:27.556Z,98935.69
2023-01-17T22:18:55.314Z,98940.13
2023-01-17T22:21:24.440Z,98947.72
2023-01-17T22:23:54.216Z,98953.25
2023-01-17T22:26:24.772Z,98951.53
2023-01-17T22:28:54.806Z,98957.84
2023-01-17T22:31:24.597Z,98965.53
2023-01-17T22:33:54.976Z,98973.94
2023-01-17T22:36:23.222Z,98971.03
2023-01-17T22:38:51.345Z,98975.63
2023-01-17T22:41:20.999Z,98983.88
2023-01-17T22:43:50.128Z,98996.78
2023-01-17T22:46:21.203Z,99000.56
2023-01-17T22:48:49.027Z,98993.09
2023-01-17T22:51:18.513Z,99000.34
2023-01-17T22:53:48.337Z,99000.47
2023-01-17T22:56:19.098Z,99003.88
2023-01-17T22:58:48.710Z,99017.94
2023-01-17T23:01:18.122Z,99025.88
2023-01-17T23:03:52.199Z,99027.72
2023-01-17T23:06:21.836Z,99031.72
2023-01-17T23:08:51.709Z,99047.31
2023-01-17T23:11:40.772Z,99049.25
2023-01-17T23:14:10.682Z,99047.78
2023-01-17T23:16:57.047Z,99054.78
2023-01-17T23:19:27.298Z,99054.09
2023-01-17T23:22:15.370Z,99064.97
2023-01-17T23:24:44.461Z,99073.25
2023-01-17T23:27:31.573Z,99089.13
2023-01-17T23:29:59.495Z,99086.69
2023-01-17T23:32:27.345Z,99088.09
2023-01-17T23:34:56.489Z,99094.75
2023-01-17T23:37:49.032Z,99087.78
2023-01-17T23:40:17.523Z,99092.22
2023-01-17T23:43:02.808Z,99092.16
2023-01-17T23:45:30.558Z,99094.72
2023-01-17T23:47:58.285Z,99099.22
2023-01-17T23:50:27.345Z,99097.94
2023-01-17T23:52:55.495Z,99101.53
2023-01-17T23:55:23.469Z,99100.69
2023-01-17T23:57:51.769Z,99103.16
